sensor_id;sensor_type;location;lat;lon;timestamp;pressure;altitude;pressure_sealevel;temperature;humidity
4617;BME280;2321;42.704;23.384;2023-02-19T00:02:09;95742.53;;;6.09;nan
4617;BME280;2321;42.704;23.384;2023-02-19T00:04:36;95748.25;;;6.05;nan
4617;BME280;2321;42.704;23.384;2023-02-19T00:07:03;95748.25;;;6.05;nan
4617;BME280;2321;42.704;23.384;2023-02-19T00:09:30;95739.88;;;6.09;nan
4617;BME280;2321;42.704;23.384;2023-02-19T00:11:58;95730.28;;;6.08;nan
4617;BME280;2321;42.704;23.384;2023-02-19T00:14:25;95731.97;;;6.09;nan
4617;BME280;2321;42.704;23.384;2023-02-19T00:16:52;95725.94;;;6.07;nan
4617;BME280;2321;42.704;23.384;2023-02-19T00:19:19;95730.16;;;6.10;nan
4617;BME280;2321;42.704;23.384;2023-02-19T00:21:46;95737.00;;;6.03;nan
4617;BME280;2321;42.704;23.384;2023-02-19T00:24:14;95731.53;;;6.04;nan
4617;BME280;2321;42.704;23.384;2023-02-19T00:26:41;95732.84;;;6.00;nan
4617;BME280;2321;42.704;23.384;2023-02-19T00:29:11;95705.75;;;5.98;nan
4617;BME280;2321;42.704;23.384;2023-02-19T00:31:38;95720.66;;;6.07;nan
4617;BME280;2321;42.704;23.384;2023-02-19T00:34:06;95712.13;;;6.14;nan
4617;BME280;2321;42.704;23.384;2023-02-19T00:36:35;95731.19;;;5.99;nan
4617;BME280;2321;42.704;23.384;2023-02-19T00:39:03;95709.69;;;5.94;nan
4617;BME280;2321;42.704;23.384;2023-02-19T00:41:31;95719.78;;;5.98;nan
4617;BME280;2321;42.704;23.384;2023-02-19T00:43:59;95715.63;;;5.96;nan
4617;BME280;2321;42.704;23.384;2023-02-19T00:46:30;95719.28;;;5.95;nan
4617;BME280;2321;42.704;23.384;2023-02-19T00:48:57;95705.41;;;5.74;nan
4617;BME280;2321;42.704;23.384;2023-02-19T00:51:26;95700.97;;;5.75;nan
4617;BME280;2321;42.704;23.384;2023-02-19T00:53:53;95694.31;;;5.71;nan
4617;BME280;2321;42.704;23.384;2023-02-19T00:56:21;95701.44;;;5.70;nan
4617;BME280;2321;42.704;23.384;2023-02-19T00:58:48;95698.81;;;5.70;nan
4617;BME280;2321;42.704;23.384;2023-02-19T01:01:15;95699.25;;;5.65;nan
4617;BME280;2321;42.704;23.384;2023-02-19T01:03:44;95694.63;;;5.67;nan
4617;BME280;2321;42.704;23.384;2023-02-19T01:06:13;95702.34;;;5.61;nan
4617;BME280;2321;42.704;23.384;2023-02-19T01:08:40;95710.34;;;5.69;nan
4617;BME280;2321;42.704;23.384;2023-02-19T01:11:08;95709.59;;;5.59;nan
4617;BME280;2321;42.704;23.384;2023-02-19T01:13:36;95707.41;;;5.54;nan
4617;BME280;2321;42.704;23.384;2023-02-19T01:16:04;95704.78;;;5.54;nan
4617;BME280;2321;42.704;23.384;2023-02-19T01:18:31;95693.06;;;5.56;nan
4617;BME280;2321;42.704;23.384;2023-02-19T01:21:04;95686.91;;;5.48;nan
4617;BME280;2321;42.704;23.384;2023-02-19T01:23:31;95698.59;;;5.45;nan
4617;BME280;2321;42.704;23.384;2023-02-19T01:25:58;95696.63;;;5.47;nan
4617;BME280;2321;42.704;23.384;2023-02-19T01:28:25;95699.50;;;5.54;nan
4617;BME280;2321;42.704;23.384;2023-02-19T01:30:52;95696.78;;;5.45;nan
4617;BME280;2321;42.704;23.384;2023-02-19T01:33:19;95698.81;;;5.52;nan
4617;BME280;2321;42.704;23.384;2023-02-19T01:35:46;95702.06;;;5.45;nan
4617;BME280;2321;42.704;23.384;2023-02-19T01:38:14;95708.34;;;5.44;nan
4617;BME280;2321;42.704;23.384;2023-02-19T01:40:41;95714.22;;;5.38;nan
4617;BME280;2321;42.704;23.384;2023-02-19T01:43:14;95732.09;;;5.44;nan
4617;BME280;2321;42.704;23.384;2023-02-19T01:45:42;95728.19;;;5.49;nan
4617;BME280;2321;42.704;23.384;2023-02-19T01:48:12;95738.66;;;5.40;nan
4617;BME280;2321;42.704;23.384;2023-02-19T01:50:44;95736.84;;;5.41;nan
4617;BME280;2321;42.704;23.384;2023-02-19T01:53:18;95737.16;;;5.38;nan
4617;BME280;2321;42.704;23.384;2023-02-19T01:55:49;95734.06;;;5.42;nan
4617;BME280;2321;42.704;23.384;2023-02-19T01:58:18;95738.44;;;5.52;nan
4617;BME280;2321;42.704;23.384;2023-02-19T02:00:46;95720.84;;;5.61;nan
4617;BME280;2321;42.704;23.384;2023-02-19T02:03:13;95726.63;;;5.64;nan
4617;BME280;2321;42.704;23.384;2023-02-19T02:05:47;95725.22;;;5.70;nan
4617;BME280;2321;42.704;23.384;2023-02-19T02:08:19;95725.09;;;5.80;nan
4617;BME280;2321;42.704;23.384;2023-02-19T02:11:04;95733.56;;;5.84;nan
4617;BME280;2321;42.704;23.384;2023-02-19T02:13:32;95729.56;;;5.98;nan
4617;BME280;2321;42.704;23.384;2023-02-19T02:16:11;95727.78;;;6.07;nan
4617;BME280;2321;42.704;23.384;2023-02-19T02:18:51;95739.09;;;6.17;nan
4617;BME280;2321;42.704;23.384;2023-02-19T02:24:52;95724.91;;;6.18;nan
4617;BME280;2321;42.704;23.384;2023-02-19T02:27:48;95730.78;;;6.39;nan
4617;BME280;2321;42.704;23.384;2023-02-19T02:30:26;95727.00;;;6.41;nan
4617;BME280;2321;42.704;23.384;2023-02-19T02:32:59;95724.03;;;6.45;nan
4617;BME280;2321;42.704;23.384;2023-02-19T02:35:33;95720.72;;;6.42;nan
4617;BME280;2321;42.704;23.384;2023-02-19T02:38:05;95715.75;;;6.39;nan
4617;BME280;2321;42.704;23.384;2023-02-19T02:40:33;95717.41;;;6.40;nan
4617;BME280;2321;42.704;23.384;2023-02-19T02:43:00;95715.75;;;6.39;nan
4617;BME280;2321;42.704;23.384;2023-02-19T02:45:31;95711.63;;;6.37;nan
4617;BME280;2321;42.704;23.384;2023-02-19T02:48:06;95723.69;;;6.39;nan
4617;BME280;2321;42.704;23.384;2023-02-19T02:50:37;95723.38;;;6.42;nan
4617;BME280;2321;42.704;23.384;2023-02-19T02:53:08;95725.22;;;6.50;nan
4617;BME280;2321;42.704;23.384;2023-02-19T02:55:55;95730.81;;;6.47;nan
4617;BME280;2321;42.704;23.384;2023-02-19T02:58:26;95741.97;;;6.59;nan
4617;BME280;2321;42.704;23.384;2023-02-19T03:00:58;95746.75;;;6.56;nan
4617;BME280;2321;42.704;23.384;2023-02-19T03:03:46;95744.75;;;6.49;nan
4617;BME280;2321;42.704;23.384;2023-02-19T03:06:17;95750.69;;;6.51;nan
4617;BME280;2321;42.704;23.384;2023-02-19T03:08:49;95766.34;;;6.45;nan
4617;BME280;2321;42.704;23.384;2023-02-19T03:11:18;95751.59;;;6.34;nan
4617;BME280;2321;42.704;23.384;2023-02-19T03:14:07;95752.22;;;6.27;nan
4617;BME280;2321;42.704;23.384;2023-02-19T03:16:59;95754.34;;;6.24;nan
4617;BME280;2321;42.704;23.384;2023-02-19T03:19:49;95756.16;;;6.23;nan
4617;BME280;2321;42.704;23.384;2023-02-19T03:22:21;95755.84;;;6.26;nan
4617;BME280;2321;42.704;23.384;2023-02-19T03:24:52;95759.06;;;6.12;nan
4617;BME280;2321;42.704;23.384;2023-02-19T03:27:40;95767.06;;;6.02;nan
4617;BME280;2321;42.704;23.384;2023-02-19T03:30:11;95765.72;;;5.97;nan
4617;BME280;2321;42.704;23.384;2023-02-19T03:32:45;95772.19;;;6.03;nan
4617;BME280;2321;42.704;23.384;2023-02-19T03:35:17;95775.47;;;5.97;nan
4617;BME280;2321;42.704;23.384;2023-02-19T03:37:51;95784.59;;;5.84;nan
4617;BME280;2321;42.704;23.384;2023-02-19T03:40:24;95789.00;;;5.75;nan
4617;BME280;2321;42.704;23.384;2023-02-19T03:42:58;95782.34;;;5.71;nan
4617;BME280;2321;42.704;23.384;2023-02-19T03:45:37;95782.34;;;5.71;nan
4617;BME280;2321;42.704;23.384;2023-02-19T03:48:19;95780.25;;;5.56;nan
4617;BME280;2321;42.704;23.384;2023-02-19T03:50:54;95793.97;;;5.60;nan
4617;BME280;2321;42.704;23.384;2023-02-19T03:53:28;95797.59;;;5.59;nan
4617;BME280;2321;42.704;23.384;2023-02-19T03:56:04;95786.88;;;5.42;nan
4617;BME280;2321;42.704;23.384;2023-02-19T03:58:39;95801.06;;;5.41;nan
4617;BME280;2321;42.704;23.384;2023-02-19T04:01:09;95796.38;;;5.35;nan
4617;BME280;2321;42.704;23.384;2023-02-19T04:03:44;95802.31;;;5.37;nan
4617;BME280;2321;42.704;23.384;2023-02-19T04:06:16;95797.03;;;5.37;nan
4617;BME280;2321;42.704;23.384;2023-02-19T04:08:47;95800.00;;;5.34;nan
4617;BME280;2321;42.704;23.384;2023-02-19T04:11:15;95789.88;;;5.29;nan
4617;BME280;2321;42.704;23.384;2023-02-19T04:13:49;95798.94;;;5.27;nan
4617;BME280;2321;42.704;23.384;2023-02-19T04:16:20;95811.25;;;5.36;nan
4617;BME280;2321;42.704;23.384;2023-02-19T04:18:51;95803.50;;;5.25;nan
4617;BME280;2321;42.704;23.384;2023-02-19T04:21:21;95794.25;;;5.20;nan
4617;BME280;2321;42.704;23.384;2023-02-19T04:23:49;95800.78;;;5.16;nan
4617;BME280;2321;42.704;23.384;2023-02-19T04:26:19;95790.16;;;5.08;nan
4617;BME280;2321;42.704;23.384;2023-02-19T04:28:47;95795.63;;;4.96;nan
4617;BME280;2321;42.704;23.384;2023-02-19T04:31:14;95810.94;;;4.93;nan
4617;BME280;2321;42.704;23.384;2023-02-19T04:33:40;95802.38;;;4.81;nan
4617;BME280;2321;42.704;23.384;2023-02-19T04:36:10;95806.53;;;4.83;nan
4617;BME280;2321;42.704;23.384;2023-02-19T04:38:37;95806.38;;;4.85;nan
4617;BME280;2321;42.704;23.384;2023-02-19T04:41:04;95819.25;;;4.88;nan
4617;BME280;2321;42.704;23.384;2023-02-19T04:43:31;95802.44;;;4.99;nan
4617;BME280;2321;42.704;23.384;2023-02-19T04:46:01;95807.13;;;5.05;nan
4617;BME280;2321;42.704;23.384;2023-02-19T04:48:28;95799.44;;;5.12;nan
4617;BME280;2321;42.704;23.384;2023-02-19T04:50:55;95813.63;;;5.11;nan
4617;BME280;2321;42.704;23.384;2023-02-19T04:53:23;95808.75;;;5.06;nan
4617;BME280;2321;42.704;23.384;2023-02-19T04:55:50;95811.41;;;5.06;nan
4617;BME280;2321;42.704;23.384;2023-02-19T04:58:19;95810.59;;;5.06;nan
4617;BME280;2321;42.704;23.384;2023-02-19T05:00:50;95809.31;;;5.10;nan
4617;BME280;2321;42.704;23.384;2023-02-19T05:03:17;95808.59;;;5.18;nan
4617;BME280;2321;42.704;23.384;2023-02-19T05:05:44;95816.25;;;5.11;nan
4617;BME280;2321;42.704;23.384;2023-02-19T05:08:11;95809.72;;;5.15;nan
4617;BME280;2321;42.704;23.384;2023-02-19T05:10:40;95819.72;;;5.11;nan
4617;BME280;2321;42.704;23.384;2023-02-19T05:13:06;95817.94;;;5.12;nan
4617;BME280;2321;42.704;23.384;2023-02-19T05:15:33;95812.47;;;5.14;nan
4617;BME280;2321;42.704;23.384;2023-02-19T05:18:00;95825.56;;;5.15;nan
4617;BME280;2321;42.704;23.384;2023-02-19T05:20:27;95827.34;;;5.15;nan
4617;BME280;2321;42.704;23.384;2023-02-19T05:22:54;95835.84;;;5.08;nan
4617;BME280;2321;42.704;23.384;2023-02-19T05:25:21;95840.00;;;5.11;nan
4617;BME280;2321;42.704;23.384;2023-02-19T05:27:50;95823.34;;;5.10;nan
4617;BME280;2321;42.704;23.384;2023-02-19T05:30:37;95833.75;;;5.12;nan
4617;BME280;2321;42.704;23.384;2023-02-19T05:33:04;95843.56;;;5.20;nan
4617;BME280;2321;42.704;23.384;2023-02-19T05:35:31;95845.63;;;5.26;nan
4617;BME280;2321;42.704;23.384;2023-02-19T05:37:58;95855.06;;;5.29;nan
4617;BME280;2321;42.704;23.384;2023-02-19T05:40:25;95864.66;;;5.30;nan
4617;BME280;2321;42.704;23.384;2023-02-19T05:42:53;95856.63;;;5.21;nan
4617;BME280;2321;42.704;23.384;2023-02-19T05:45:20;95869.81;;;5.21;nan
4617;BME280;2321;42.704;23.384;2023-02-19T05:47:47;95858.66;;;5.28;nan
4617;BME280;2321;42.704;23.384;2023-02-19T05:50:14;95859.50;;;5.28;nan
4617;BME280;2321;42.704;23.384;2023-02-19T05:52:41;95852.97;;;5.32;nan
4617;BME280;2321;42.704;23.384;2023-02-19T05:55:09;95857.28;;;5.33;nan
4617;BME280;2321;42.704;23.384;2023-02-19T05:57:39;95859.84;;;5.43;nan
4617;BME280;2321;42.704;23.384;2023-02-19T06:00:09;95864.22;;;5.53;nan
4617;BME280;2321;42.704;23.384;2023-02-19T06:02:37;95861.22;;;5.48;nan
4617;BME280;2321;42.704;23.384;2023-02-19T06:05:05;95872.84;;;5.55;nan
4617;BME280;2321;42.704;23.384;2023-02-19T06:07:32;95879.19;;;5.62;nan
4617;BME280;2321;42.704;23.384;2023-02-19T06:09:59;95877.22;;;5.64;nan
4617;BME280;2321;42.704;23.384;2023-02-19T06:12:26;95879.50;;;5.77;nan
4617;BME280;2321;42.704;23.384;2023-02-19T06:14:53;95880.34;;;5.78;nan
4617;BME280;2321;42.704;23.384;2023-02-19T06:17:22;95874.00;;;5.89;nan
4617;BME280;2321;42.704;23.384;2023-02-19T06:19:48;95876.56;;;5.99;nan
4617;BME280;2321;42.704;23.384;2023-02-19T06:22:15;95882.91;;;6.06;nan
4617;BME280;2321;42.704;23.384;2023-02-19T06:24:42;95881.50;;;6.12;nan
4617;BME280;2321;42.704;23.384;2023-02-19T06:27:09;95886.31;;;6.17;nan
4617;BME280;2321;42.704;23.384;2023-02-19T06:29:36;95881.94;;;6.26;nan
4617;BME280;2321;42.704;23.384;2023-02-19T06:32:04;95873.56;;;6.30;nan
4617;BME280;2321;42.704;23.384;2023-02-19T06:34:32;95890.69;;;6.45;nan
4617;BME280;2321;42.704;23.384;2023-02-19T06:36:59;95888.13;;;6.53;nan
4617;BME280;2321;42.704;23.384;2023-02-19T06:39:26;95890.34;;;6.66;nan
4617;BME280;2321;42.704;23.384;2023-02-19T06:41:54;95894.56;;;6.77;nan
4617;BME280;2321;42.704;23.384;2023-02-19T06:44:21;95886.50;;;6.87;nan
4617;BME280;2321;42.704;23.384;2023-02-19T06:46:48;95890.53;;;7.00;nan
4617;BME280;2321;42.704;23.384;2023-02-19T06:49:15;95893.81;;;7.20;nan
4617;BME280;2321;42.704;23.384;2023-02-19T06:51:44;95904.44;;;7.37;nan
4617;BME280;2321;42.704;23.384;2023-02-19T06:54:10;95899.38;;;7.52;nan
4617;BME280;2321;42.704;23.384;2023-02-19T06:56:39;95897.78;;;7.68;nan
4617;BME280;2321;42.704;23.384;2023-02-19T06:59:08;95900.31;;;7.86;nan
4617;BME280;2321;42.704;23.384;2023-02-19T07:01:36;95909.94;;;8.04;nan
4617;BME280;2321;42.704;23.384;2023-02-19T07:04:03;95909.78;;;8.14;nan
4617;BME280;2321;42.704;23.384;2023-02-19T07:06:31;95914.78;;;8.25;nan
4617;BME280;2321;42.704;23.384;2023-02-19T07:09:00;95903.19;;;8.43;nan
4617;BME280;2321;42.704;23.384;2023-02-19T07:11:29;95907.47;;;8.53;nan
4617;BME280;2321;42.704;23.384;2023-02-19T07:13:58;95897.91;;;8.60;nan
4617;BME280;2321;42.704;23.384;2023-02-19T07:16:25;95903.06;;;8.62;nan
4617;BME280;2321;42.704;23.384;2023-02-19T07:18:55;95899.06;;;8.66;nan
4617;BME280;2321;42.704;23.384;2023-02-19T07:21:22;95894.03;;;8.88;nan
4617;BME280;2321;42.704;23.384;2023-02-19T07:23:49;95888.84;;;9.11;nan
4617;BME280;2321;42.704;23.384;2023-02-19T07:26:18;95877.66;;;9.24;nan
4617;BME280;2321;42.704;23.384;2023-02-19T07:28:46;95868.47;;;9.44;nan
4617;BME280;2321;42.704;23.384;2023-02-19T07:31:14;95869.69;;;9.65;nan
4617;BME280;2321;42.704;23.384;2023-02-19T07:33:42;95877.06;;;9.86;nan
4617;BME280;2321;42.704;23.384;2023-02-19T07:36:09;95876.41;;;10.08;nan
4617;BME280;2321;42.704;23.384;2023-02-19T07:38:37;95874.22;;;10.35;nan
4617;BME280;2321;42.704;23.384;2023-02-19T07:41:05;95870.91;;;10.56;nan
4617;BME280;2321;42.704;23.384;2023-02-19T07:43:35;95869.66;;;10.83;nan
4617;BME280;2321;42.704;23.384;2023-02-19T07:46:02;95871.53;;;11.13;nan
4617;BME280;2321;42.704;23.384;2023-02-19T07:48:30;95876.47;;;11.46;nan
4617;BME280;2321;42.704;23.384;2023-02-19T07:50:59;95876.16;;;11.71;nan
4617;BME280;2321;42.704;23.384;2023-02-19T07:53:26;95871.91;;;11.99;nan
4617;BME280;2321;42.704;23.384;2023-02-19T07:55:58;95871.53;;;12.17;nan
4617;BME280;2321;42.704;23.384;2023-02-19T07:58:28;95887.91;;;12.36;nan
4617;BME280;2321;42.704;23.384;2023-02-19T08:01:06;95877.97;;;12.52;nan
4617;BME280;2321;42.704;23.384;2023-02-19T08:03:37;95873.81;;;12.71;nan
4617;BME280;2321;42.704;23.384;2023-02-19T08:06:03;95882.38;;;12.89;nan
4617;BME280;2321;42.704;23.384;2023-02-19T08:08:30;95882.47;;;13.02;nan
4617;BME280;2321;42.704;23.384;2023-02-19T08:10:59;95875.56;;;13.15;nan
4617;BME280;2321;42.704;23.384;2023-02-19T08:13:44;95868.81;;;13.26;nan
4617;BME280;2321;42.704;23.384;2023-02-19T08:16:15;95866.59;;;13.29;nan
4617;BME280;2321;42.704;23.384;2023-02-19T08:18:44;95865.56;;;13.31;nan
4617;BME280;2321;42.704;23.384;2023-02-19T08:21:12;95855.66;;;13.24;nan
4617;BME280;2321;42.704;23.384;2023-02-19T08:23:42;95875.81;;;13.27;nan
4617;BME280;2321;42.704;23.384;2023-02-19T08:26:10;95867.41;;;13.30;nan
4617;BME280;2321;42.704;23.384;2023-02-19T08:28:38;95867.19;;;13.32;nan
4617;BME280;2321;42.704;23.384;2023-02-19T08:31:06;95862.28;;;13.35;nan
4617;BME280;2321;42.704;23.384;2023-02-19T08:33:36;95869.31;;;13.43;nan
4617;BME280;2321;42.704;23.384;2023-02-19T08:36:05;95873.69;;;13.51;nan
4617;BME280;2321;42.704;23.384;2023-02-19T08:38:33;95879.94;;;13.65;nan
4617;BME280;2321;42.704;23.384;2023-02-19T08:41:03;95867.41;;;13.72;nan
4617;BME280;2321;42.704;23.384;2023-02-19T08:43:30;95867.84;;;13.76;nan
4617;BME280;2321;42.704;23.384;2023-02-19T08:45:57;95877.72;;;13.76;nan
4617;BME280;2321;42.704;23.384;2023-02-19T08:48:24;95854.66;;;13.81;nan
4617;BME280;2321;42.704;23.384;2023-02-19T08:50:57;95849.34;;;13.88;nan
4617;BME280;2321;42.704;23.384;2023-02-19T08:53:25;95853.47;;;13.91;nan
4617;BME280;2321;42.704;23.384;2023-02-19T08:55:52;95853.88;;;13.94;nan
4617;BME280;2321;42.704;23.384;2023-02-19T08:58:19;95844.63;;;13.97;nan
4617;BME280;2321;42.704;23.384;2023-02-19T09:00:46;95841.16;;;14.10;nan
4617;BME280;2321;42.704;23.384;2023-02-19T09:03:13;95823.44;;;14.16;nan
4617;BME280;2321;42.704;23.384;2023-02-19T09:05:40;95838.50;;;14.37;nan
4617;BME280;2321;42.704;23.384;2023-02-19T09:08:09;95834.59;;;14.40;nan
4617;BME280;2321;42.704;23.384;2023-02-19T09:10:37;95823.44;;;14.36;nan
4617;BME280;2321;42.704;23.384;2023-02-19T09:13:04;95814.78;;;14.48;nan
4617;BME280;2321;42.704;23.384;2023-02-19T09:15:31;95821.81;;;14.63;nan
4617;BME280;2321;42.704;23.384;2023-02-19T09:17:59;95802.41;;;14.67;nan
4617;BME280;2321;42.704;23.384;2023-02-19T09:20:26;95800.16;;;14.71;nan
4617;BME280;2321;42.704;23.384;2023-02-19T09:22:56;95796.63;;;14.77;nan
4617;BME280;2321;42.704;23.384;2023-02-19T09:25:24;95806.09;;;14.94;nan
4617;BME280;2321;42.704;23.384;2023-02-19T09:27:54;95804.81;;;15.10;nan
4617;BME280;2321;42.704;23.384;2023-02-19T09:30:21;95802.13;;;15.23;nan
4617;BME280;2321;42.704;23.384;2023-02-19T09:32:48;95811.34;;;15.34;nan
4617;BME280;2321;42.704;23.384;2023-02-19T09:35:15;95801.38;;;15.49;nan
4617;BME280;2321;42.704;23.384;2023-02-19T09:37:42;95800.88;;;15.65;nan
4617;BME280;2321;42.704;23.384;2023-02-19T09:40:09;95804.16;;;15.67;nan
4617;BME280;2321;42.704;23.384;2023-02-19T09:42:39;95803.72;;;15.77;nan
4617;BME280;2321;42.704;23.384;2023-02-19T09:45:15;95804.97;;;15.75;nan
4617;BME280;2321;42.704;23.384;2023-02-19T09:47:45;95799.16;;;15.78;nan
4617;BME280;2321;42.704;23.384;2023-02-19T09:50:16;95809.09;;;15.77;nan
4617;BME280;2321;42.704;23.384;2023-02-19T09:52:49;95788.22;;;15.79;nan
4617;BME280;2321;42.704;23.384;2023-02-19T09:55:23;95790.84;;;15.86;nan
4617;BME280;2321;42.704;23.384;2023-02-19T09:57:58;95792.25;;;15.96;nan
4617;BME280;2321;42.704;23.384;2023-02-19T10:00:28;95784.97;;;16.03;nan
4617;BME280;2321;42.704;23.384;2023-02-19T10:03:03;95776.44;;;16.13;nan
4617;BME280;2321;42.704;23.384;2023-02-19T10:05:31;95776.41;;;16.20;nan
4617;BME280;2321;42.704;23.384;2023-02-19T10:07:59;95766.00;;;16.30;nan
4617;BME280;2321;42.704;23.384;2023-02-19T10:10:31;95766.16;;;16.36;nan
4617;BME280;2321;42.704;23.384;2023-02-19T10:13:12;95756.38;;;16.41;nan
4617;BME280;2321;42.704;23.384;2023-02-19T10:15:45;95748.56;;;16.40;nan
4617;BME280;2321;42.704;23.384;2023-02-19T10:18:16;95740.06;;;16.43;nan
4617;BME280;2321;42.704;23.384;2023-02-19T10:20:44;95737.03;;;16.32;nan
4617;BME280;2321;42.704;23.384;2023-02-19T10:23:13;95738.00;;;16.38;nan
4617;BME280;2321;42.704;23.384;2023-02-19T10:25:44;95718.75;;;16.41;nan
4617;BME280;2321;42.704;23.384;2023-02-19T10:28:15;95718.25;;;16.51;nan
4617;BME280;2321;42.704;23.384;2023-02-19T10:30:44;95709.75;;;16.54;nan
4617;BME280;2321;42.704;23.384;2023-02-19T10:33:15;95692.94;;;16.59;nan
4617;BME280;2321;42.704;23.384;2023-02-19T10:35:55;95692.22;;;16.71;nan
4617;BME280;2321;42.704;23.384;2023-02-19T10:38:25;95680.91;;;16.81;nan
4617;BME280;2321;42.704;23.384;2023-02-19T10:41:04;95667.03;;;16.84;nan
4617;BME280;2321;42.704;23.384;2023-02-19T10:43:35;95674.81;;;16.73;nan
4617;BME280;2321;42.704;23.384;2023-02-19T10:46:05;95665.25;;;16.77;nan
4617;BME280;2321;42.704;23.384;2023-02-19T10:48:35;95655.09;;;16.80;nan
4617;BME280;2321;42.704;23.384;2023-02-19T10:51:05;95652.53;;;16.85;nan
4617;BME280;2321;42.704;23.384;2023-02-19T10:53:42;95650.81;;;16.91;nan
4617;BME280;2321;42.704;23.384;2023-02-19T10:56:12;95650.75;;;16.79;nan
4617;BME280;2321;42.704;23.384;2023-02-19T10:58:41;95647.47;;;16.95;nan
4617;BME280;2321;42.704;23.384;2023-02-19T11:01:14;95640.41;;;17.13;nan
4617;BME280;2321;42.704;23.384;2023-02-19T11:03:44;95641.06;;;17.27;nan
4617;BME280;2321;42.704;23.384;2023-02-19T11:06:13;95636.97;;;17.37;nan
4617;BME280;2321;42.704;23.384;2023-02-19T11:08:50;95620.63;;;17.38;nan
4617;BME280;2321;42.704;23.384;2023-02-19T11:11:29;95617.00;;;17.33;nan
4617;BME280;2321;42.704;23.384;2023-02-19T11:14:00;95615.69;;;17.35;nan
4617;BME280;2321;42.704;23.384;2023-02-19T11:16:39;95619.81;;;17.38;nan
4617;BME280;2321;42.704;23.384;2023-02-19T11:19:22;95607.16;;;17.38;nan
4617;BME280;2321;42.704;23.384;2023-02-19T11:21:50;95602.94;;;17.42;nan
4617;BME280;2321;42.704;23.384;2023-02-19T11:24:23;95599.69;;;17.40;nan
4617;BME280;2321;42.704;23.384;2023-02-19T11:26:51;95591.97;;;17.44;nan
4617;BME280;2321;42.704;23.384;2023-02-19T11:29:22;95592.34;;;17.48;nan
4617;BME280;2321;42.704;23.384;2023-02-19T11:31:53;95588.22;;;17.57;nan
4617;BME280;2321;42.704;23.384;2023-02-19T11:34:28;95576.88;;;17.67;nan
4617;BME280;2321;42.704;23.384;2023-02-19T11:37:09;95572.69;;;17.83;nan
4617;BME280;2321;42.704;23.384;2023-02-19T11:39:38;95571.28;;;17.93;nan
4617;BME280;2321;42.704;23.384;2023-02-19T11:42:26;95563.88;;;18.00;nan
4617;BME280;2321;42.704;23.384;2023-02-19T11:48:12;95560.13;;;18.25;nan
4617;BME280;2321;42.704;23.384;2023-02-19T11:50:51;95553.22;;;18.29;nan
4617;BME280;2321;42.704;23.384;2023-02-19T11:53:26;95552.63;;;18.39;nan
4617;BME280;2321;42.704;23.384;2023-02-19T11:56:07;95560.31;;;18.48;nan
4617;BME280;2321;42.704;23.384;2023-02-19T11:58:58;95544.50;;;18.51;nan
4617;BME280;2321;42.704;23.384;2023-02-19T12:01:40;95539.28;;;18.62;nan
4617;BME280;2321;42.704;23.384;2023-02-19T12:04:25;95530.66;;;18.77;nan
4617;BME280;2321;42.704;23.384;2023-02-19T12:07:05;95536.31;;;18.76;nan
4617;BME280;2321;42.704;23.384;2023-02-19T12:09:42;95525.44;;;18.70;nan
4617;BME280;2321;42.704;23.384;2023-02-19T12:12:21;95514.19;;;18.61;nan
4617;BME280;2321;42.704;23.384;2023-02-19T12:15:17;95513.16;;;18.80;nan
4617;BME280;2321;42.704;23.384;2023-02-19T12:18:08;95501.91;;;18.83;nan
4617;BME280;2321;42.704;23.384;2023-02-19T12:20:43;95500.63;;;18.86;nan
4617;BME280;2321;42.704;23.384;2023-02-19T12:23:32;95496.34;;;18.90;nan
4617;BME280;2321;42.704;23.384;2023-02-19T12:26:08;95487.63;;;19.00;nan
4617;BME280;2321;42.704;23.384;2023-02-19T12:28:53;95487.38;;;19.01;nan
4617;BME280;2321;42.704;23.384;2023-02-19T12:34:31;95474.97;;;19.17;nan
4617;BME280;2321;42.704;23.384;2023-02-19T12:37:14;95467.44;;;19.20;nan
4617;BME280;2321;42.704;23.384;2023-02-19T12:39:52;95462.72;;;19.27;nan
4617;BME280;2321;42.704;23.384;2023-02-19T12:42:36;95450.44;;;19.36;nan
4617;BME280;2321;42.704;23.384;2023-02-19T12:45:15;95454.19;;;19.35;nan
4617;BME280;2321;42.704;23.384;2023-02-19T12:47:50;95439.81;;;19.30;nan
4617;BME280;2321;42.704;23.384;2023-02-19T12:50:23;95435.91;;;19.37;nan
4617;BME280;2321;42.704;23.384;2023-02-19T12:52:55;95429.50;;;19.44;nan
4617;BME280;2321;42.704;23.384;2023-02-19T12:55:26;95426.88;;;19.49;nan
4617;BME280;2321;42.704;23.384;2023-02-19T12:57:56;95415.50;;;19.47;nan
4617;BME280;2321;42.704;23.384;2023-02-19T13:00:32;95410.91;;;19.47;nan
4617;BME280;2321;42.704;23.384;2023-02-19T13:03:04;95413.94;;;19.51;nan
4617;BME280;2321;42.704;23.384;2023-02-19T13:05:43;95404.50;;;19.54;nan
4617;BME280;2321;42.704;23.384;2023-02-19T13:08:16;95410.00;;;19.59;nan
4617;BME280;2321;42.704;23.384;2023-02-19T13:10:49;95407.41;;;19.69;nan
4617;BME280;2321;42.704;23.384;2023-02-19T13:13:19;95395.22;;;19.67;nan
4617;BME280;2321;42.704;23.384;2023-02-19T13:15:51;95383.28;;;19.63;nan
4617;BME280;2321;42.704;23.384;2023-02-19T13:18:23;95384.25;;;19.74;nan
4617;BME280;2321;42.704;23.384;2023-02-19T13:20:53;95376.97;;;19.74;nan
4617;BME280;2321;42.704;23.384;2023-02-19T13:23:23;95383.78;;;19.82;nan
4617;BME280;2321;42.704;23.384;2023-02-19T13:26:34;95376.13;;;19.96;nan
4617;BME280;2321;42.704;23.384;2023-02-19T13:29:14;95366.94;;;19.97;nan
4617;BME280;2321;42.704;23.384;2023-02-19T13:32:03;95361.44;;;19.87;nan
4617;BME280;2321;42.704;23.384;2023-02-19T13:34:46;95364.88;;;19.82;nan
4617;BME280;2321;42.704;23.384;2023-02-19T13:37:19;95353.06;;;19.88;nan
4617;BME280;2321;42.704;23.384;2023-02-19T13:39:48;95351.81;;;19.96;nan
4617;BME280;2321;42.704;23.384;2023-02-19T13:42:24;95349.72;;;20.03;nan
4617;BME280;2321;42.704;23.384;2023-02-19T13:44:52;95345.75;;;20.11;nan
4617;BME280;2321;42.704;23.384;2023-02-19T13:47:48;95338.28;;;20.19;nan
4617;BME280;2321;42.704;23.384;2023-02-19T13:50:26;95325.59;;;20.19;nan
4617;BME280;2321;42.704;23.384;2023-02-19T13:52:55;95341.75;;;20.14;nan
4617;BME280;2321;42.704;23.384;2023-02-19T13:55:48;95341.41;;;20.10;nan
4617;BME280;2321;42.704;23.384;2023-02-19T13:58:51;95328.66;;;20.06;nan
4617;BME280;2321;42.704;23.384;2023-02-19T14:04:47;95323.34;;;19.88;nan
4617;BME280;2321;42.704;23.384;2023-02-19T14:13:00;95318.06;;;19.71;nan
4617;BME280;2321;42.704;23.384;2023-02-19T14:15:42;95322.59;;;19.65;nan
4617;BME280;2321;42.704;23.384;2023-02-19T14:18:41;95318.41;;;19.57;nan
4617;BME280;2321;42.704;23.384;2023-02-19T14:21:15;95315.16;;;19.55;nan
4617;BME280;2321;42.704;23.384;2023-02-19T14:23:43;95315.63;;;19.47;nan